createdAt,value
2017-06-24T00:00:28.157Z,55.68
2017-06-24T00:01:08.689Z,55.4
2017-06-24T00:01:49.209Z,54.81
2017-06-24T00:02:29.767Z,55.2
2017-06-24T00:03:10.269Z,55.4
2017-06-24T00:03:50.823Z,55.58
2017-06-24T00:04:31.353Z,56.16
2017-06-24T00:05:11.867Z,56.07
2017-06-24T00:05:52.430Z,55.98
2017-06-24T00:06:33.050Z,55.78
2017-06-24T00:07:13.567Z,55.78
2017-06-24T00:07:54.097Z,56.16
2017-06-24T00:08:34.635Z,57.14
2017-06-24T00:09:15.186Z,57.59
2017-06-24T00:09:55.715Z,57.59
2017-06-24T00:10:36.242Z,58.07
2017-06-24T00:11:16.769Z,58.07
2017-06-24T00:11:57.289Z,58.37
2017-06-24T00:12:37.821Z,58.17
2017-06-24T00:13:18.354Z,58.27
2017-06-24T00:13:58.890Z,58.85
2017-06-24T00:14:39.429Z,59.53
2017-06-24T00:15:19.950Z,59.53
2017-06-24T00:16:00.472Z,58.85
2017-06-24T00:16:40.991Z,58.75
2017-06-24T00:17:21.520Z,59.05
2017-06-24T00:18:02.057Z,59.43
2017-06-24T00:18:42.568Z,59.33
2017-06-24T00:19:23.122Z,59.53
2017-06-24T00:20:03.652Z,59.43
2017-06-24T00:20:44.202Z,59.43
2017-06-24T00:21:24.734Z,59.43
2017-06-24T00:22:05.260Z,59.14
2017-06-24T00:22:45.785Z,59.43
2017-06-24T00:23:26.304Z,59.43
2017-06-24T00:24:06.832Z,59.43
2017-06-24T00:24:47.353Z,59.23
2017-06-24T00:25:27.878Z,59.23
2017-06-24T00:26:08.408Z,59.53
2017-06-24T00:26:48.949Z,58.95
2017-06-24T00:27:29.474Z,58.75
2017-06-24T00:28:10.004Z,59.43
2017-06-24T00:28:50.518Z,59.05
2017-06-24T00:29:31.044Z,59.33
2017-06-24T00:30:11.579Z,59.43
2017-06-24T00:30:52.115Z,59.14
2017-06-24T00:31:32.659Z,59.33
2017-06-24T00:32:13.184Z,59.53
2017-06-24T00:32:53.715Z,59.53
2017-06-24T00:33:34.249Z,59.53
2017-06-24T00:34:14.778Z,59.43
2017-06-24T00:34:55.299Z,59.43
2017-06-24T00:35:35.838Z,58.85
2017-06-24T00:36:16.376Z,59.33
2017-06-24T00:36:56.896Z,59.33
2017-06-24T00:37:37.438Z,59.43
2017-06-24T00:38:17.959Z,59.14
2017-06-24T00:38:58.483Z,59.23
2017-06-24T00:39:39.015Z,59.14
2017-06-24T00:40:19.538Z,59.53
2017-06-24T00:41:00.081Z,59.63
2017-06-24T00:41:40.605Z,59.43
2017-06-24T00:42:21.129Z,59.63
2017-06-24T00:43:01.670Z,59.63
2017-06-24T00:43:42.206Z,59.59
2017-06-24T00:44:22.735Z,59.43
2017-06-24T00:45:03.256Z,59.23
2017-06-24T00:45:43.787Z,59.4
2017-06-24T00:46:24.305Z,59.43
2017-06-24T00:47:04.837Z,58.85
2017-06-24T00:47:45.371Z,58.56
2017-06-24T00:48:25.927Z,58.63
2017-06-24T00:49:06.477Z,58.17
2017-06-24T00:49:46.989Z,58.17
2017-06-24T00:50:27.515Z,57.98
2017-06-24T00:51:08.036Z,57.98
2017-06-24T00:51:48.570Z,58.04
2017-06-24T00:52:29.111Z,57.86
2017-06-24T00:53:09.656Z,58.17
2017-06-24T00:53:50.168Z,57.37
2017-06-24T00:54:30.712Z,57.37
2017-06-24T00:55:11.245Z,57.66
2017-06-24T00:55:51.808Z,57.76
2017-06-24T00:56:32.338Z,56.98
2017-06-24T00:57:12.875Z,57.28
2017-06-24T00:57:53.388Z,57.86
2017-06-24T00:58:33.907Z,57.56
2017-06-24T00:59:14.442Z,57.86
2017-06-24T00:59:54.971Z,57.18
2017-06-24T01:00:35.500Z,57.28
2017-06-24T01:01:16.038Z,57.08
2017-06-24T01:01:56.548Z,56.98
2017-06-24T01:02:37.066Z,56.92
2017-06-24T01:03:17.612Z,56.72
2017-06-24T01:03:58.145Z,56.88
2017-06-24T01:04:38.670Z,56.7
2017-06-24T01:05:19.196Z,56.92
2017-06-24T01:05:59.716Z,56.62
2017-06-24T01:06:40.245Z,56.43
2017-06-24T01:07:20.768Z,56.5
2017-06-24T01:08:01.299Z,56.6
2017-06-24T01:08:41.822Z,56.4
2017-06-24T01:09:22.362Z,56.3
2017-06-24T01:10:02.907Z,56.11
2017-06-24T01:10:43.438Z,56.21
2017-06-24T01:11:23.963Z,55.92
2017-06-24T01:12:04.517Z,56.11
2017-06-24T01:12:45.050Z,56.02
2017-06-24T01:13:25.592Z,56.02
2017-06-24T01:14:06.131Z,56.3
2017-06-24T01:14:46.660Z,56.4
2017-06-24T01:15:27.198Z,56.3
2017-06-24T01:16:07.726Z,56.98
2017-06-24T01:16:48.267Z,57.18
2017-06-24T01:17:28.782Z,57.08
2017-06-24T01:18:09.311Z,56.88
2017-06-24T01:18:49.837Z,57.18
2017-06-24T01:19:30.381Z,57.28
2017-06-24T01:20:10.904Z,57.08
2017-06-24T01:20:51.438Z,57.28
2017-06-24T01:21:31.968Z,57.56
2017-06-24T01:22:12.498Z,57.76
2017-06-24T01:22:53.043Z,57.08
2017-06-24T01:23:33.577Z,57.76
2017-06-24T01:24:14.125Z,57.28
2017-06-24T01:24:54.656Z,57.86
2017-06-24T01:25:35.172Z,57.88
2017-06-24T01:26:15.709Z,58.04
2017-06-24T01:26:56.236Z,57.37
2017-06-24T01:27:36.765Z,58.14
2017-06-24T01:28:17.299Z,58.04
2017-06-24T01:28:57.825Z,58.14
2017-06-24T01:29:38.355Z,58.04
2017-06-24T01:30:18.878Z,58.14
2017-06-24T01:30:59.415Z,58.14
2017-06-24T01:31:39.932Z,58.34
2017-06-24T01:32:20.453Z,58.34
2017-06-24T01:33:00.988Z,57.76
2017-06-24T01:33:41.515Z,58.14
2017-06-24T01:34:22.035Z,58.04
2017-06-24T01:35:02.550Z,58.24
2017-06-24T01:35:43.083Z,58.14
2017-06-24T01:36:23.617Z,57.86
2017-06-24T01:37:04.145Z,58.34
2017-06-24T01:37:44.688Z,58.14
2017-06-24T01:38:25.210Z,58.34
2017-06-24T01:39:05.743Z,58.44
2017-06-24T01:39:46.274Z,58.14
2017-06-24T01:40:26.815Z,58.5
2017-06-24T01:41:07.331Z,59.28
2017-06-24T01:41:47.866Z,59.38
2017-06-24T01:42:28.393Z,59.38
2017-06-24T01:43:08.925Z,59.18
2017-06-24T01:43:49.464Z,59.76
2017-06-24T01:44:29.985Z,59.76
2017-06-24T01:45:10.508Z,59.86
2017-06-24T01:45:51.041Z,59.76
2017-06-24T01:46:31.596Z,60.53
2017-06-24T01:47:12.129Z,60.34
2017-06-24T01:47:52.680Z,60.72
2017-06-24T01:48:33.204Z,60.63
2017-06-24T01:49:13.735Z,60.63
2017-06-24T01:49:54.258Z,60.63
2017-06-24T01:50:34.794Z,61.11
2017-06-24T01:51:15.316Z,61.6
2017-06-24T01:51:55.847Z,61.37
2017-06-24T01:52:36.392Z,61.6
2017-06-24T01:53:16.911Z,61.4
2017-06-24T01:53:57.441Z,61.5
2017-06-24T01:54:37.971Z,61.3
2017-06-24T01:55:18.552Z,60.92
2017-06-24T01:55:59.071Z,60.82
2017-06-24T01:56:39.596Z,60.63
2017-06-24T01:57:20.124Z,60.82
2017-06-24T01:58:00.649Z,61.02
2017-06-24T01:58:41.191Z,61.27
2017-06-24T01:59:21.717Z,61.3
2017-06-24T02:00:02.236Z,61.08
2017-06-24T02:00:42.753Z,61.47
2017-06-24T02:01:23.292Z,61.4
2017-06-24T02:02:03.824Z,61.37
2017-06-24T02:02:44.354Z,61.66
2017-06-24T02:03:24.892Z,61.76
2017-06-24T02:04:05.421Z,62.05
2017-06-24T02:04:45.949Z,62.15
2017-06-24T02:05:26.490Z,61.6
2017-06-24T02:06:07.027Z,61.21
2017-06-24T02:06:47.555Z,61.21
2017-06-24T02:07:28.085Z,61.5
2017-06-24T02:08:08.619Z,61.5
2017-06-24T02:08:49.147Z,61.21
2017-06-24T02:09:29.677Z,61.3
2017-06-24T02:10:10.213Z,61.69
2017-06-24T02:10:50.741Z,62.27
2017-06-24T02:11:31.261Z,61.69
2017-06-24T02:12:11.789Z,61.4
2017-06-24T02:12:52.316Z,61.4
2017-06-24T02:13:32.837Z,61.3
2017-06-24T02:14:13.359Z,61.4
2017-06-24T02:14:53.891Z,61.76
2017-06-24T02:15:34.424Z,61.76
2017-06-24T02:16:14.953Z,62.34
2017-06-24T02:16:55.479Z,61.86
2017-06-24T02:17:36.005Z,62.24
2017-06-24T02:18:16.529Z,62.53
2017-06-24T02:18:57.050Z,62.44
2017-06-24T02:19:37.583Z,63.21
2017-06-24T02:20:18.114Z,63.02
2017-06-24T02:22:11.242Z,63.31
2017-06-24T02:22:51.768Z,63.5
2017-06-24T02:23:32.299Z,63.37
2017-06-24T02:24:12.821Z,62.4
2017-06-24T02:24:53.360Z,63.31
2017-06-24T02:25:33.854Z,63.47
2017-06-24T02:26:14.374Z,63.28
2017-06-24T02:26:54.912Z,63.66
2017-06-24T02:27:35.460Z,63.56
2017-06-24T02:28:15.988Z,63.76
2017-06-24T02:28:56.508Z,63.08
2017-06-24T02:29:37.032Z,62.98
2017-06-24T02:30:17.592Z,63.18
2017-06-24T02:30:58.120Z,62.98
2017-06-24T02:31:38.641Z,62.98
2017-06-24T02:32:19.172Z,63.31
2017-06-24T02:32:59.703Z,63.37
2017-06-24T02:33:40.236Z,62.98
2017-06-24T02:34:20.759Z,63.08
2017-06-24T02:35:01.292Z,62.98
2017-06-24T02:35:41.816Z,63.37
2017-06-24T02:36:22.347Z,63.5
2017-06-24T02:37:02.866Z,62.92
2017-06-24T02:37:43.380Z,62.92
2017-06-24T02:38:23.915Z,62.92
2017-06-24T02:39:04.438Z,62.79
2017-06-24T02:39:45.002Z,63.37
2017-06-24T02:40:25.479Z,62.7
2017-06-24T02:41:06.014Z,63.18
2017-06-24T02:41:46.539Z,63.5
2017-06-24T02:42:27.074Z,62.92
2017-06-24T02:43:07.606Z,62.82
2017-06-24T02:43:48.135Z,63.28
2017-06-24T02:44:28.664Z,63.11
2017-06-24T02:45:09.209Z,63.08
2017-06-24T02:45:49.739Z,62.79
2017-06-24T02:46:30.258Z,62.98
2017-06-24T02:47:10.786Z,63.28
2017-06-24T02:47:51.324Z,63.37
2017-06-24T02:48:31.859Z,63.76
2017-06-24T02:49:12.380Z,63.56
2017-06-24T02:49:52.902Z,63.66
2017-06-24T02:50:33.437Z,63.18
2017-06-24T02:51:13.978Z,63.76
2017-06-24T02:51:54.477Z,63.47
2017-06-24T02:52:35.019Z,63.43
2017-06-24T02:53:15.538Z,63.53
2017-06-24T02:53:56.064Z,64.11
2017-06-24T02:54:36.591Z,63.82
2017-06-24T02:55:17.101Z,64.4
2017-06-24T02:55:57.637Z,64.59
2017-06-24T02:56:38.155Z,64.79
2017-06-24T02:57:18.676Z,64.69
2017-06-24T02:57:59.204Z,64.59
2017-06-24T02:58:39.755Z,64.79
2017-06-24T02:59:20.288Z,64.76
2017-06-24T03:00:00.813Z,65.43
2017-06-24T03:00:41.344Z,65.43
2017-06-24T03:01:21.877Z,65.43
2017-06-24T03:02:02.405Z,65.05
2017-06-24T03:02:42.939Z,65.37
2017-06-24T03:03:23.460Z,65.08
2017-06-24T03:04:03.999Z,64.89
2017-06-24T03:04:44.539Z,64.31
2017-06-24T03:05:25.056Z,64.59
2017-06-24T03:06:05.588Z,64.59
2017-06-24T03:06:46.131Z,64.4
2017-06-24T03:07:26.666Z,64.5
2017-06-24T03:08:07.179Z,64.11
2017-06-24T03:08:47.691Z,64.69
2017-06-24T03:09:28.228Z,64.5
2017-06-24T03:10:08.751Z,64.21
2017-06-24T03:10:49.276Z,64.69
2017-06-24T03:11:29.799Z,64.31
2017-06-24T03:12:10.330Z,64.59
2017-06-24T03:12:50.853Z,64.05
2017-06-24T03:13:31.376Z,63.85
2017-06-24T03:14:11.899Z,63.85
2017-06-24T03:14:52.435Z,63.37
2017-06-24T03:15:32.961Z,63.28
2017-06-24T03:16:13.488Z,63.47
2017-06-24T03:16:54.014Z,63.56
2017-06-24T03:17:34.533Z,62.79
2017-06-24T03:18:15.056Z,62.79
2017-06-24T03:18:55.597Z,62.98
2017-06-24T03:19:36.127Z,62.89
2017-06-24T03:20:16.668Z,63.08
2017-06-24T03:20:57.192Z,63.18
2017-06-24T03:21:37.721Z,62.98
2017-06-24T03:22:18.237Z,62.82
2017-06-24T03:22:58.805Z,62.63
2017-06-24T03:23:39.332Z,62.7
2017-06-24T03:24:19.850Z,62.63
2017-06-24T03:25:00.371Z,62.7
2017-06-24T03:25:40.893Z,62.89
2017-06-24T03:26:21.478Z,62.89
2017-06-24T03:27:02.017Z,63.08
2017-06-24T03:27:42.538Z,62.98
2017-06-24T03:28:23.083Z,62.79
2017-06-24T03:29:03.600Z,62.89
2017-06-24T03:29:44.133Z,62.89
2017-06-24T03:30:24.668Z,62.89
2017-06-24T03:31:05.199Z,63.28
2017-06-24T03:31:45.727Z,62.79
2017-06-24T03:32:26.251Z,62.79
2017-06-24T03:33:06.780Z,63.47
2017-06-24T03:33:47.294Z,63.47
2017-06-24T03:34:27.817Z,63.37
2017-06-24T03:35:08.345Z,63.37
2017-06-24T03:35:48.883Z,62.98
2017-06-24T03:36:29.398Z,62.7
2017-06-24T03:37:09.938Z,63.18
2017-06-24T03:37:50.471Z,63.18
2017-06-24T03:38:31.005Z,62.7
2017-06-24T03:39:11.526Z,63.37
2017-06-24T03:39:52.049Z,63.37
2017-06-24T03:40:32.569Z,62.4
2017-06-24T03:41:13.091Z,63.28
2017-06-24T03:41:53.781Z,63.56
2017-06-24T03:42:34.311Z,63.28
2017-06-24T03:43:14.830Z,63.63
2017-06-24T03:43:55.365Z,63.28
2017-06-24T03:44:35.883Z,63.18
2017-06-24T03:45:16.416Z,63.47
2017-06-24T03:45:56.961Z,63.28
2017-06-24T03:46:37.467Z,63.08
2017-06-24T03:47:17.991Z,63.66
2017-06-24T03:47:58.529Z,63.08
2017-06-24T03:48:39.061Z,63.47
2017-06-24T03:49:19.587Z,63.37
2017-06-24T03:50:00.117Z,63.18
2017-06-24T03:50:40.641Z,62.89
2017-06-24T03:51:21.165Z,62.98
2017-06-24T03:52:01.686Z,62.89
2017-06-24T03:52:42.226Z,63.28
2017-06-24T03:53:22.759Z,62.79
2017-06-24T03:54:03.303Z,62.79
2017-06-24T03:54:43.845Z,62.89
2017-06-24T03:55:24.349Z,63.37
2017-06-24T03:56:04.881Z,62.98
2017-06-24T03:56:45.413Z,63.37
2017-06-24T03:57:25.930Z,63.28
2017-06-24T03:58:06.453Z,62.98
2017-06-24T03:58:46.974Z,62.98
2017-06-24T03:59:27.497Z,62.79
2017-06-24T04:00:08.004Z,62.98
2017-06-24T04:00:48.537Z,63.37
2017-06-24T04:01:29.059Z,62.98
2017-06-24T04:02:09.583Z,63.18
2017-06-24T04:02:50.106Z,63.18
2017-06-24T04:03:30.637Z,62.7
2017-06-24T04:04:11.158Z,62.89
2017-06-24T04:04:51.691Z,62.98
2017-06-24T04:05:32.233Z,63.18
2017-06-24T04:06:12.791Z,62.5
2017-06-24T04:06:53.300Z,62.79
2017-06-24T04:07:33.827Z,63.28
2017-06-24T04:08:14.350Z,62.98
2017-06-24T04:08:54.882Z,63.08
2017-06-24T04:09:35.397Z,63.18
2017-06-24T04:10:15.933Z,62.86
2017-06-24T04:10:56.448Z,63.34
2017-06-24T04:11:36.974Z,63.08
2017-06-24T04:12:17.505Z,63.18
2017-06-24T04:12:58.031Z,63.08
2017-06-24T04:13:38.569Z,63.08
2017-06-24T04:14:19.099Z,62.6
2017-06-24T04:14:59.630Z,63.37
2017-06-24T04:15:40.166Z,63.08
2017-06-24T04:16:20.695Z,63.28
2017-06-24T04:17:01.213Z,63.28
2017-06-24T04:17:41.746Z,63.66
2017-06-24T04:18:22.290Z,62.98
2017-06-24T04:19:02.907Z,63.28
2017-06-24T04:19:43.447Z,63.08
2017-06-24T04:20:23.974Z,63.56
2017-06-24T04:21:04.496Z,62.89
2017-06-24T04:21:45.020Z,63.08
2017-06-24T04:22:25.548Z,62.98
2017-06-24T04:23:06.089Z,63.08
2017-06-24T04:23:46.614Z,62.89
2017-06-24T04:24:27.145Z,62.89
2017-06-24T04:25:07.658Z,62.7
2017-06-24T04:25:48.185Z,62.6
2017-06-24T04:26:28.708Z,61.92
2017-06-24T04:27:09.238Z,62.21
2017-06-24T04:27:49.759Z,62.05
2017-06-24T04:28:30.301Z,62.15
2017-06-24T04:29:10.829Z,61.95
2017-06-24T04:29:51.358Z,61.76
2017-06-24T04:30:31.867Z,61.95
2017-06-24T04:31:12.390Z,61.95
2017-06-24T04:31:52.920Z,62.24
2017-06-24T04:32:33.447Z,61.92
2017-06-24T04:33:13.976Z,61.92
2017-06-24T04:33:54.517Z,62.4
2017-06-24T04:34:35.052Z,61.92
2017-06-24T04:35:15.568Z,62.21
2017-06-24T04:35:56.121Z,62.21
2017-06-24T04:36:36.650Z,62.5
2017-06-24T04:37:17.174Z,62.21
2017-06-24T04:37:57.694Z,62.02
2017-06-24T04:38:38.216Z,62.12
2017-06-24T04:39:18.768Z,62.02
2017-06-24T04:39:59.380Z,61.76
2017-06-24T04:40:39.920Z,62.05
2017-06-24T04:41:20.444Z,61.66
2017-06-24T04:42:00.970Z,61.21
2017-06-24T04:42:41.491Z,60.05
2017-06-24T04:43:22.027Z,59.86
2017-06-24T04:44:02.558Z,59.11
2017-06-24T04:44:43.093Z,58.07
2017-06-24T04:45:23.614Z,56.94
2017-06-24T04:46:04.180Z,54.7
2017-06-24T04:46:44.689Z,53.24
2017-06-24T04:47:25.212Z,54.58
2017-06-24T04:48:05.748Z,54.96
2017-06-24T04:48:46.271Z,55.13
2017-06-24T04:49:26.786Z,56.36
2017-06-24T04:50:07.301Z,56.82
2017-06-24T04:50:47.833Z,57.5
2017-06-24T04:51:28.362Z,58.14
2017-06-24T04:52:08.912Z,58.34
2017-06-24T04:52:49.415Z,58.72
2017-06-24T04:53:29.938Z,59.38
2017-06-24T04:54:10.469Z,59.47
2017-06-24T04:54:50.976Z,59.56
2017-06-24T04:55:31.544Z,60.34
2017-06-24T04:56:12.092Z,60.53
2017-06-24T04:56:52.625Z,60.24
2017-06-24T04:57:33.176Z,60.34
2017-06-24T04:58:13.756Z,60.05
2017-06-24T04:58:54.321Z,60.14
2017-06-24T04:59:34.844Z,60.24
2017-06-24T05:00:15.504Z,60.24
2017-06-24T05:00:55.907Z,59.66
2017-06-24T05:01:36.628Z,59.95
2017-06-24T05:02:17.151Z,59.66
2017-06-24T05:02:57.680Z,59.56
2017-06-24T05:03:38.213Z,59.86
2017-06-24T05:04:18.737Z,59.86
2017-06-24T05:04:59.255Z,60.34
2017-06-24T05:05:39.772Z,59.56
2017-06-24T05:06:20.367Z,60.05
2017-06-24T05:07:00.900Z,60.14
2017-06-24T05:07:41.426Z,59.95
2017-06-24T05:08:22.004Z,59.95
2017-06-24T05:09:02.532Z,60.53
2017-06-24T05:09:43.325Z,60.34
2017-06-24T05:10:23.841Z,60.31
2017-06-24T05:11:04.376Z,60.05
2017-06-24T05:11:44.890Z,60.63
2017-06-24T05:12:25.422Z,60.05
2017-06-24T05:13:05.950Z,59.86
2017-06-24T05:13:46.510Z,60.05
2017-06-24T05:14:27.040Z,59.66
2017-06-24T05:15:07.561Z,60.05
2017-06-24T05:15:48.077Z,59.47
2017-06-24T05:16:28.607Z,59.95
2017-06-24T05:17:09.137Z,59.76
2017-06-24T05:17:49.667Z,59.92
2017-06-24T05:18:30.188Z,60.11
2017-06-24T05:19:10.713Z,60.5
2017-06-24T05:19:51.255Z,60.5
2017-06-24T05:20:31.782Z,60.69
2017-06-24T05:21:12.305Z,60.6
2017-06-24T05:21:52.820Z,60.63
2017-06-24T05:22:33.352Z,60.6
2017-06-24T05:23:13.931Z,60.79
2017-06-24T05:23:54.478Z,60.34
2017-06-24T05:24:34.986Z,60.44
2017-06-24T05:25:15.505Z,60.44
2017-06-24T05:25:56.046Z,60.69
2017-06-24T05:26:36.584Z,60.14
2017-06-24T05:27:17.119Z,60.6
2017-06-24T05:27:57.647Z,60.5
2017-06-24T05:28:38.179Z,60.34
2017-06-24T05:29:18.718Z,60.34
2017-06-24T05:29:59.238Z,60.24
2017-06-24T05:30:39.761Z,59.86
2017-06-24T05:31:20.275Z,59.56
2017-06-24T05:32:00.797Z,59.56
2017-06-24T05:32:41.309Z,59.28
2017-06-24T05:33:21.844Z,59.38
2017-06-24T05:34:02.375Z,59.5
2017-06-24T05:34:42.910Z,59.21
2017-06-24T05:35:23.451Z,59.5
2017-06-24T05:36:03.978Z,58.82
2017-06-24T05:36:44.505Z,58.89
2017-06-24T05:37:25.041Z,59.08
2017-06-24T05:38:05.569Z,59.47
2017-06-24T05:38:46.095Z,59.66
2017-06-24T05:39:26.623Z,59.56
2017-06-24T05:40:07.148Z,59.28
2017-06-24T05:40:47.681Z,59.66
2017-06-24T05:41:28.200Z,60.05
2017-06-24T05:42:08.733Z,60.44
2017-06-24T05:42:49.270Z,60.14
2017-06-24T05:43:29.804Z,60.14
2017-06-24T05:44:10.339Z,60.14
2017-06-24T05:44:50.863Z,60.34
2017-06-24T05:45:31.416Z,60.14
2017-06-24T05:46:11.950Z,59.66
2017-06-24T05:46:52.493Z,59.76
2017-06-24T05:47:33.017Z,59.28
2017-06-24T05:48:13.550Z,59.56
2017-06-24T05:48:54.088Z,59.76
2017-06-24T05:49:34.620Z,59.28
2017-06-24T05:50:15.142Z,59.31
2017-06-24T05:50:55.679Z,58.53
2017-06-24T05:51:36.213Z,58.44
2017-06-24T05:52:16.735Z,58.34
2017-06-24T05:52:57.308Z,58.44
2017-06-24T05:53:37.834Z,58.24
2017-06-24T05:54:18.365Z,58.34
2017-06-24T05:54:58.893Z,58.17
2017-06-24T05:55:39.430Z,57.69
2017-06-24T05:56:19.957Z,57.37
2017-06-24T05:57:00.484Z,57.5
2017-06-24T05:57:41.004Z,57.56
2017-06-24T05:58:21.559Z,57.79
2017-06-24T05:59:02.098Z,57.59
2017-06-24T05:59:42.652Z,57.98
2017-06-24T06:00:23.154Z,57.79
2017-06-24T06:01:03.718Z,57.11
2017-06-24T06:01:44.322Z,57.01
2017-06-24T06:02:24.852Z,56.85
2017-06-24T06:03:05.375Z,56.56
2017-06-24T06:03:45.963Z,56.65
2017-06-24T06:04:26.446Z,55.98
2017-06-24T06:05:06.973Z,56.16
2017-06-24T06:05:47.522Z,56.26
2017-06-24T06:06:28.061Z,56.75
2017-06-24T06:07:08.594Z,55.98
2017-06-24T06:07:49.129Z,55.88
2017-06-24T06:08:29.667Z,56.26
2017-06-24T06:09:10.220Z,56.07
2017-06-24T06:09:50.767Z,56.1
2017-06-24T06:10:31.295Z,55.71
2017-06-24T06:11:11.837Z,55.9
2017-06-24T06:11:52.404Z,54.77
2017-06-24T06:12:32.939Z,55.06
2017-06-24T06:13:13.466Z,54.58
2017-06-24T06:13:53.984Z,54.21
2017-06-24T06:14:34.502Z,53.7
2017-06-24T06:15:15.027Z,53.73
2017-06-24T06:15:55.567Z,53.8
2017-06-24T06:16:36.100Z,53.83
2017-06-24T06:17:16.624Z,53.53
2017-06-24T06:17:57.151Z,52.3
2017-06-24T06:18:37.678Z,52.78
2017-06-24T06:19:18.217Z,52.4
2017-06-24T06:19:58.760Z,52.3
2017-06-24T06:20:39.291Z,52.98
2017-06-24T06:21:19.825Z,52.4
2017-06-24T06:22:00.351Z,52.13
2017-06-24T06:22:40.872Z,52.01
2017-06-24T06:23:21.387Z,51.84
2017-06-24T06:24:02.811Z,52.11
2017-06-24T06:24:43.951Z,52.56
2017-06-24T06:25:24.486Z,52.86
2017-06-24T06:26:05.022Z,52.4
2017-06-24T06:26:45.566Z,52.13
2017-06-24T06:27:26.126Z,51.55
2017-06-24T06:28:06.641Z,51.18
2017-06-24T06:28:47.173Z,50.6
2017-06-24T06:29:28.112Z,50.51
2017-06-24T06:30:08.658Z,49.85
2017-06-24T06:30:49.200Z,49.56
2017-06-24T06:31:30.412Z,48.8
2017-06-24T06:32:11.025Z,49.07
2017-06-24T06:32:51.488Z,49.17
2017-06-24T06:33:32.007Z,49.1
2017-06-24T06:34:12.526Z,48.71
2017-06-24T06:34:53.052Z,48.9
2017-06-24T06:35:33.592Z,49
2017-06-24T06:36:14.498Z,48.15
2017-06-24T06:36:55.037Z,47.66
2017-06-24T06:37:35.595Z,48.07
2017-06-24T06:38:16.121Z,47.59
2017-06-24T06:38:56.629Z,47.3
2017-06-24T06:39:37.174Z,47.2
2017-06-24T06:40:17.743Z,47.78
2017-06-24T06:40:58.267Z,47.56
2017-06-24T06:41:38.798Z,47.59
2017-06-24T06:42:19.349Z,47.2
2017-06-24T06:42:59.888Z,47.3
2017-06-24T06:43:40.402Z,47.2
2017-06-24T06:44:20.935Z,46.54
2017-06-24T06:45:01.464Z,47.2
2017-06-24T06:45:41.997Z,46.91
2017-06-24T06:46:22.523Z,46.73
2017-06-24T06:47:03.227Z,47.03
2017-06-24T06:47:43.749Z,46.34
2017-06-24T06:48:24.287Z,46.44
2017-06-24T06:49:04.818Z,46.34
2017-06-24T06:49:45.347Z,46.93
2017-06-24T06:50:25.872Z,46.44
2017-06-24T06:51:06.408Z,47.03
2017-06-24T06:51:46.924Z,47.2
2017-06-24T06:52:27.461Z,46.81
2017-06-24T06:53:08.001Z,47.1
2017-06-24T06:53:48.555Z,47
2017-06-24T06:54:29.035Z,47.2
2017-06-24T06:55:09.581Z,47.2
2017-06-24T06:55:50.164Z,47
2017-06-24T06:56:30.749Z,46.42
2017-06-24T06:57:11.262Z,46.32
2017-06-24T06:57:51.803Z,46.42
2017-06-24T06:58:32.342Z,46.81
2017-06-24T06:59:12.881Z,46.42
2017-06-24T06:59:53.397Z,46.23
2017-06-24T07:00:34.064Z,46.03
2017-06-24T07:01:14.586Z,46.03
2017-06-24T07:01:55.188Z,45.84
2017-06-24T07:02:35.697Z,46.03
2017-06-24T07:03:16.239Z,46.69
2017-06-24T07:03:56.767Z,47
2017-06-24T07:04:37.297Z,46.61
2017-06-24T07:05:17.826Z,46.23
2017-06-24T07:06:01.018Z,46.32
2017-06-24T07:06:43.495Z,46.23
2017-06-24T07:07:22.650Z,45.94
2017-06-24T07:08:04.748Z,45.94
2017-06-24T07:08:45.294Z,46.42
2017-06-24T07:09:25.820Z,46.91
2017-06-24T07:10:06.351Z,46.71
2017-06-24T07:10:46.855Z,46.91
2017-06-24T07:11:27.418Z,46.71
2017-06-24T07:12:10.450Z,46.81
2017-06-24T07:12:50.970Z,47
2017-06-24T07:13:31.466Z,46.23
2017-06-24T07:14:11.977Z,46.42
2017-06-24T07:14:52.859Z,46.13
2017-06-24T07:15:33.354Z,46.13
2017-06-24T07:16:13.890Z,45.94
2017-06-24T07:16:54.411Z,45.94
2017-06-24T07:17:34.961Z,45.74
2017-06-24T07:18:15.415Z,45.94
2017-06-24T07:18:55.917Z,45.64
2017-06-24T07:19:36.421Z,45.64
2017-06-24T07:20:16.911Z,45.64
2017-06-24T07:20:57.416Z,45.84
2017-06-24T07:21:37.930Z,45.64
2017-06-24T07:22:18.483Z,45.35
2017-06-24T07:22:59.024Z,45.64
2017-06-24T07:23:39.612Z,45.25
2017-06-24T07:24:20.096Z,45.15
2017-06-24T07:25:00.588Z,45.72
2017-06-24T07:25:41.131Z,46.01
2017-06-24T07:26:21.620Z,45.62
2017-06-24T07:27:02.066Z,45.42
2017-06-24T07:27:42.666Z,45.23
2017-06-24T07:28:23.067Z,45.32
2017-06-24T07:29:03.618Z,45.14
2017-06-24T07:29:51.366Z,45.04
2017-06-24T07:31:38.892Z,44.35
2017-06-24T07:32:19.493Z,44.86
2017-06-24T07:33:00.111Z,44.57
2017-06-24T07:33:40.636Z,44.38
2017-06-24T07:34:21.160Z,44.18
2017-06-24T07:35:01.731Z,43.7
2017-06-24T07:35:42.259Z,43.79
2017-06-24T07:36:22.782Z,43.79
2017-06-24T07:37:03.303Z,43.99
2017-06-24T07:37:43.815Z,43.89
2017-06-24T07:38:24.327Z,43.5
2017-06-24T07:39:04.881Z,43.89
2017-06-24T07:39:45.374Z,43.5
2017-06-24T07:40:25.877Z,43.79
2017-06-24T07:41:06.393Z,43.7
2017-06-24T07:41:46.870Z,43.99
2017-06-24T07:42:27.394Z,43.99
2017-06-24T07:43:07.887Z,43.79
2017-06-24T07:43:48.413Z,43.33
2017-06-24T07:44:29.023Z,43.4
2017-06-24T07:45:09.534Z,43.7
2017-06-24T07:45:50.977Z,43.7
2017-06-24T07:46:31.375Z,44.09
2017-06-24T07:47:11.887Z,44.18
2017-06-24T07:47:52.391Z,44.09
2017-06-24T07:48:32.908Z,43.79
2017-06-24T07:49:13.379Z,43.81
2017-06-24T07:49:53.965Z,43.81
2017-06-24T07:50:34.494Z,43.71
2017-06-24T07:51:15.068Z,43.62
2017-06-24T07:51:55.669Z,43.4
2017-06-24T07:52:36.178Z,43.6
2017-06-24T07:53:16.765Z,43.43
2017-06-24T07:55:16.141Z,43.23
2017-06-24T07:55:56.771Z,44.28
2017-06-24T07:56:37.332Z,44.4
2017-06-24T07:57:17.911Z,43.23
2017-06-24T07:57:58.561Z,43.43
2017-06-24T07:58:39.184Z,43.71
2017-06-24T07:59:19.781Z,43.13
2017-06-24T08:00:00.282Z,43.23
2017-06-24T08:00:40.880Z,43.04
2017-06-24T08:01:21.460Z,43.33
2017-06-24T08:02:02.068Z,44.4
2017-06-24T08:02:42.739Z,44.2
2017-06-24T08:03:23.253Z,43.23
2017-06-24T08:04:03.768Z,43.81
2017-06-24T08:04:44.363Z,43.44
2017-06-24T08:06:33.641Z,43.6
2017-06-24T08:07:14.203Z,43.4
2017-06-24T08:07:54.812Z,43.89
2017-06-24T08:08:35.420Z,43.7
2017-06-24T08:09:16.178Z,43.5
2017-06-24T08:09:56.788Z,43.11
2017-06-24T08:10:37.352Z,43.4
2017-06-24T08:11:17.956Z,43.38
2017-06-24T08:11:58.565Z,43.48
2017-06-24T08:12:39.131Z,43.67
2017-06-24T08:13:19.707Z,43.48
2017-06-24T08:14:00.333Z,43.75
2017-06-24T08:14:40.900Z,43.36
2017-06-24T08:15:21.431Z,44.33
2017-06-24T08:16:01.974Z,43.67
2017-06-24T08:16:42.467Z,43.55
2017-06-24T08:17:23.033Z,43.85
2017-06-24T08:18:03.575Z,43.77
2017-06-24T08:18:44.111Z,43.67
2017-06-24T08:19:24.660Z,43.48
2017-06-24T08:20:05.151Z,43.09
2017-06-24T08:20:45.789Z,43.3
2017-06-24T08:21:26.288Z,43.11
2017-06-24T08:22:06.828Z,42.82
2017-06-24T08:22:47.346Z,43.21
2017-06-24T08:23:27.874Z,42.99
2017-06-24T08:24:08.383Z,43.21
2017-06-24T08:24:48.923Z,43.01
2017-06-24T08:25:29.495Z,42.82
2017-06-24T08:26:09.946Z,43.11
2017-06-24T08:26:50.475Z,43.38
2017-06-24T08:27:30.981Z,43.11
2017-06-24T08:28:11.515Z,43.4
2017-06-24T08:28:52.048Z,43.7
2017-06-24T08:29:32.597Z,42.82
2017-06-24T08:30:13.126Z,43.11
2017-06-24T08:30:53.658Z,42.55
2017-06-24T08:31:34.179Z,42.04
2017-06-24T08:32:14.707Z,42.33
2017-06-24T08:32:55.245Z,42.63
2017-06-24T08:33:35.775Z,42.63
2017-06-24T08:34:16.301Z,42.8
2017-06-24T08:34:56.830Z,43.09
2017-06-24T08:35:37.378Z,43.38
2017-06-24T08:36:17.929Z,43.38
2017-06-24T08:36:58.436Z,43.48
2017-06-24T08:37:38.974Z,43.77
2017-06-24T08:38:19.520Z,43.58
2017-06-24T08:40:12.657Z,43.67
2017-06-24T08:40:53.185Z,43.38
2017-06-24T08:41:33.694Z,43.65
2017-06-24T08:42:14.213Z,44.14
2017-06-24T08:42:54.746Z,44.82
2017-06-24T08:43:35.274Z,45.01
2017-06-24T08:44:15.808Z,45.72
2017-06-24T08:44:56.328Z,45.32
2017-06-24T08:45:36.913Z,44.04
2017-06-24T08:46:17.446Z,43.85
2017-06-24T08:46:57.961Z,44.06
2017-06-24T08:47:38.485Z,43.96
2017-06-24T08:48:19.030Z,44.14
2017-06-24T08:48:59.579Z,43.87
2017-06-24T08:49:40.146Z,43.16
2017-06-24T08:50:20.679Z,43.95
2017-06-24T08:51:01.204Z,44.31